sensor_id;sensor_type;location;lat;lon;timestamp;P1;durP1;ratioP1;P2;durP2;ratioP2
27424;SDS011;15244;49.088;11.886;2024-03-23T00:56:21;26.20;;;18.77;;
27424;SDS011;15244;49.088;11.886;2024-03-23T01:01:21;27.52;;;19.38;;
27424;SDS011;15244;49.088;11.886;2024-03-23T01:06:22;22.58;;;17.48;;
27424;SDS011;15244;49.088;11.886;2024-03-23T01:11:23;23.08;;;18.73;;
27424;SDS011;15244;49.088;11.886;2024-03-23T01:16:23;23.40;;;18.55;;
27424;SDS011;15244;49.088;11.886;2024-03-23T01:21:24;27.80;;;20.13;;
27424;SDS011;15244;49.088;11.886;2024-03-23T01:26:25;24.75;;;18.42;;
27424;SDS011;15244;49.088;11.886;2024-03-23T01:31:25;24.83;;;18.05;;
27424;SDS011;15244;49.088;11.886;2024-03-23T01:36:26;24.75;;;18.13;;
27424;SDS011;15244;49.088;11.886;2024-03-23T01:41:27;23.05;;;17.75;;
27424;SDS011;15244;49.088;11.886;2024-03-23T01:46:27;21.30;;;17.17;;
27424;SDS011;15244;49.088;11.886;2024-03-23T01:51:28;19.35;;;15.65;;
27424;SDS011;15244;49.088;11.886;2024-03-23T01:56:31;22.67;;;16.83;;
27424;SDS011;15244;49.088;11.886;2024-03-23T02:01:36;18.90;;;15.25;;
27424;SDS011;15244;49.088;11.886;2024-03-23T02:06:37;22.98;;;16.02;;
27424;SDS011;15244;49.088;11.886;2024-03-23T02:11:38;21.52;;;13.90;;
27424;SDS011;15244;49.088;11.886;2024-03-23T02:16:38;15.05;;;12.00;;
27424;SDS011;15244;49.088;11.886;2024-03-23T02:21:39;12.48;;;11.20;;
27424;SDS011;15244;49.088;11.886;2024-03-23T02:26:40;13.63;;;10.77;;
27424;SDS011;15244;49.088;11.886;2024-03-23T02:31:40;12.90;;;10.50;;
27424;SDS011;15244;49.088;11.886;2024-03-23T02:36:41;10.90;;;9.80;;
27424;SDS011;15244;49.088;11.886;2024-03-23T02:41:42;9.80;;;8.80;;
27424;SDS011;15244;49.088;11.886;2024-03-23T02:46:43;14.43;;;9.18;;
27424;SDS011;15244;49.088;11.886;2024-03-23T02:51:43;9.38;;;8.43;;
27424;SDS011;15244;49.088;11.886;2024-03-23T02:56:45;10.30;;;8.68;;
27424;SDS011;15244;49.088;11.886;2024-03-23T03:01:46;9.20;;;8.30;;
27424;SDS011;15244;49.088;11.886;2024-03-23T03:06:47;10.18;;;8.48;;
27424;SDS011;15244;49.088;11.886;2024-03-23T03:11:48;9.82;;;7.65;;
27424;SDS011;15244;49.088;11.886;2024-03-23T03:16:48;10.35;;;7.70;;
27424;SDS011;15244;49.088;11.886;2024-03-23T03:21:49;7.50;;;6.85;;
27424;SDS011;15244;49.088;11.886;2024-03-23T03:26:50;8.63;;;7.68;;
27424;SDS011;15244;49.088;11.886;2024-03-23T03:31:50;7.70;;;7.10;;
27424;SDS011;15244;49.088;11.886;2024-03-23T03:36:51;8.77;;;6.78;;
27424;SDS011;15244;49.088;11.886;2024-03-23T03:41:52;8.35;;;7.40;;
27424;SDS011;15244;49.088;11.886;2024-03-23T03:46:52;6.78;;;5.70;;
27424;SDS011;15244;49.088;11.886;2024-03-23T03:51:53;7.18;;;6.20;;
27424;SDS011;15244;49.088;11.886;2024-03-23T03:56:55;6.65;;;6.03;;
27424;SDS011;15244;49.088;11.886;2024-03-23T04:01:55;6.40;;;5.90;;
27424;SDS011;15244;49.088;11.886;2024-03-23T04:06:59;6.35;;;5.85;;
27424;SDS011;15244;49.088;11.886;2024-03-23T04:12:01;6.18;;;5.57;;
27424;SDS011;15244;49.088;11.886;2024-03-23T04:17:01;6.45;;;5.78;;
27424;SDS011;15244;49.088;11.886;2024-03-23T04:22:03;6.40;;;5.90;;
27424;SDS011;15244;49.088;11.886;2024-03-23T04:27:04;5.82;;;5.43;;
27424;SDS011;15244;49.088;11.886;2024-03-23T04:32:04;6.38;;;5.35;;
27424;SDS011;15244;49.088;11.886;2024-03-23T04:37:06;6.03;;;5.43;;
27424;SDS011;15244;49.088;11.886;2024-03-23T04:42:06;6.03;;;5.57;;
27424;SDS011;15244;49.088;11.886;2024-03-23T04:47:07;9.43;;;6.05;;
27424;SDS011;15244;49.088;11.886;2024-03-23T04:52:08;5.60;;;5.10;;
27424;SDS011;15244;49.088;11.886;2024-03-23T04:57:08;5.25;;;4.82;;
27424;SDS011;15244;49.088;11.886;2024-03-23T05:02:09;5.32;;;4.90;;
27424;SDS011;15244;49.088;11.886;2024-03-23T05:07:11;5.22;;;4.72;;
27424;SDS011;15244;49.088;11.886;2024-03-23T05:12:12;4.82;;;4.43;;
27424;SDS011;15244;49.088;11.886;2024-03-23T05:17:12;4.63;;;4.18;;
27424;SDS011;15244;49.088;11.886;2024-03-23T05:22:13;4.60;;;4.20;;
27424;SDS011;15244;49.088;11.886;2024-03-23T05:27:14;4.50;;;4.20;;
27424;SDS011;15244;49.088;11.886;2024-03-23T05:32:15;4.00;;;3.60;;
27424;SDS011;15244;49.088;11.886;2024-03-23T05:37:15;3.55;;;3.33;;
27424;SDS011;15244;49.088;11.886;2024-03-23T05:42:16;3.92;;;3.45;;
27424;SDS011;15244;49.088;11.886;2024-03-23T05:47:18;3.67;;;3.42;;
27424;SDS011;15244;49.088;11.886;2024-03-23T05:52:18;4.57;;;3.10;;
27424;SDS011;15244;49.088;11.886;2024-03-23T05:57:22;5.38;;;2.95;;
27424;SDS011;15244;49.088;11.886;2024-03-23T06:02:23;3.15;;;2.88;;
27424;SDS011;15244;49.088;11.886;2024-03-23T06:07:24;2.88;;;2.67;;
27424;SDS011;15244;49.088;11.886;2024-03-23T06:12:25;5.60;;;3.33;;
27424;SDS011;15244;49.088;11.886;2024-03-23T06:17:26;3.22;;;2.92;;
27424;SDS011;15244;49.088;11.886;2024-03-23T06:22:27;4.47;;;3.00;;
27424;SDS011;15244;49.088;11.886;2024-03-23T06:27:28;3.28;;;2.97;;
27424;SDS011;15244;49.088;11.886;2024-03-23T06:32:29;3.08;;;2.70;;
27424;SDS011;15244;49.088;11.886;2024-03-23T06:37:30;4.57;;;2.97;;
27424;SDS011;15244;49.088;11.886;2024-03-23T06:42:30;3.80;;;2.65;;
27424;SDS011;15244;49.088;11.886;2024-03-23T06:47:31;2.72;;;2.53;;
27424;SDS011;15244;49.088;11.886;2024-03-23T06:52:32;2.60;;;2.40;;
27424;SDS011;15244;49.088;11.886;2024-03-23T06:57:32;2.83;;;2.63;;
27424;SDS011;15244;49.088;11.886;2024-03-23T07:02:33;3.53;;;2.60;;
27424;SDS011;15244;49.088;11.886;2024-03-23T07:07:33;2.80;;;2.60;;
27424;SDS011;15244;49.088;11.886;2024-03-23T07:12:34;3.60;;;3.03;;
27424;SDS011;15244;49.088;11.886;2024-03-23T07:17:35;3.15;;;2.55;;
27424;SDS011;15244;49.088;11.886;2024-03-23T07:22:36;3.65;;;3.15;;
27424;SDS011;15244;49.088;11.886;2024-03-23T07:27:37;3.38;;;2.72;;
27424;SDS011;15244;49.088;11.886;2024-03-23T07:32:38;3.17;;;2.97;;
27424;SDS011;15244;49.088;11.886;2024-03-23T07:37:39;4.07;;;3.72;;
27424;SDS011;15244;49.088;11.886;2024-03-23T07:42:40;5.13;;;4.68;;
27424;SDS011;15244;49.088;11.886;2024-03-23T07:47:41;5.53;;;3.78;;
27424;SDS011;15244;49.088;11.886;2024-03-23T07:52:41;5.38;;;4.00;;
27424;SDS011;15244;49.088;11.886;2024-03-23T07:57:42;3.83;;;3.58;;
27424;SDS011;15244;49.088;11.886;2024-03-23T08:02:42;3.50;;;3.20;;
27424;SDS011;15244;49.088;11.886;2024-03-23T08:07:43;3.45;;;3.15;;
27424;SDS011;15244;49.088;11.886;2024-03-23T08:12:45;3.83;;;3.42;;
27424;SDS011;15244;49.088;11.886;2024-03-23T08:17:46;4.18;;;3.88;;
27424;SDS011;15244;49.088;11.886;2024-03-23T08:22:47;3.45;;;3.15;;
27424;SDS011;15244;49.088;11.886;2024-03-23T08:27:47;3.60;;;3.30;;
27424;SDS011;15244;49.088;11.886;2024-03-23T08:32:48;3.70;;;3.40;;
27424;SDS011;15244;49.088;11.886;2024-03-23T08:37:49;4.25;;;3.35;;
27424;SDS011;15244;49.088;11.886;2024-03-23T08:42:50;4.30;;;3.60;;
27424;SDS011;15244;49.088;11.886;2024-03-23T08:47:51;4.40;;;3.75;;
27424;SDS011;15244;49.088;11.886;2024-03-23T08:52:52;4.90;;;4.50;;
27424;SDS011;15244;49.088;11.886;2024-03-23T08:57:52;4.03;;;3.63;;
27424;SDS011;15244;49.088;11.886;2024-03-23T09:02:53;4.78;;;4.40;;
27424;SDS011;15244;49.088;11.886;2024-03-23T09:07:54;5.05;;;4.32;;
27424;SDS011;15244;49.088;11.886;2024-03-23T09:12:56;4.10;;;3.80;;
27424;SDS011;15244;49.088;11.886;2024-03-23T09:17:58;3.65;;;3.35;;
27424;SDS011;15244;49.088;11.886;2024-03-23T09:22:59;4.32;;;3.92;;
27424;SDS011;15244;49.088;11.886;2024-03-23T09:28:00;6.00;;;5.50;;
27424;SDS011;15244;49.088;11.886;2024-03-23T09:33:01;6.35;;;5.88;;
27424;SDS011;15244;49.088;11.886;2024-03-23T09:38:03;3.25;;;3.05;;
27424;SDS011;15244;49.088;11.886;2024-03-23T09:43:06;3.50;;;3.20;;
27424;SDS011;15244;49.088;11.886;2024-03-23T09:48:08;2.85;;;2.65;;
27424;SDS011;15244;49.088;11.886;2024-03-23T09:53:11;2.85;;;2.65;;
27424;SDS011;15244;49.088;11.886;2024-03-23T09:58:17;2.65;;;2.45;;
27424;SDS011;15244;49.088;11.886;2024-03-23T10:03:18;1.98;;;1.88;;
27424;SDS011;15244;49.088;11.886;2024-03-23T10:08:18;1.27;;;1.27;;
27424;SDS011;15244;49.088;11.886;2024-03-23T10:13:26;1.00;;;1.00;;
27424;SDS011;15244;49.088;11.886;2024-03-23T10:18:29;1.20;;;1.20;;
27424;SDS011;15244;49.088;11.886;2024-03-23T10:23:30;0.80;;;0.80;;
27424;SDS011;15244;49.088;11.886;2024-03-23T10:28:31;0.90;;;0.90;;
27424;SDS011;15244;49.088;11.886;2024-03-23T10:33:31;1.00;;;0.90;;
27424;SDS011;15244;49.088;11.886;2024-03-23T10:38:34;0.85;;;0.85;;
27424;SDS011;15244;49.088;11.886;2024-03-23T10:43:35;0.82;;;0.82;;
27424;SDS011;15244;49.088;11.886;2024-03-23T10:48:36;1.20;;;1.10;;
27424;SDS011;15244;49.088;11.886;2024-03-23T10:53:38;0.70;;;0.70;;
27424;SDS011;15244;49.088;11.886;2024-03-23T10:58:46;0.80;;;0.80;;
27424;SDS011;15244;49.088;11.886;2024-03-23T11:03:51;1.90;;;1.80;;
27424;SDS011;15244;49.088;11.886;2024-03-23T11:08:52;1.88;;;0.68;;
27424;SDS011;15244;49.088;11.886;2024-03-23T11:13:54;1.00;;;1.00;;
27424;SDS011;15244;49.088;11.886;2024-03-23T11:19:33;0.70;;;0.70;;
27424;SDS011;15244;49.088;11.886;2024-03-23T11:24:34;1.75;;;0.70;;
27424;SDS011;15244;49.088;11.886;2024-03-23T11:29:35;0.90;;;0.90;;
27424;SDS011;15244;49.088;11.886;2024-03-23T11:34:37;1.15;;;1.10;;
27424;SDS011;15244;49.088;11.886;2024-03-23T11:39:39;0.88;;;0.80;;
27424;SDS011;15244;49.088;11.886;2024-03-23T11:44:40;1.05;;;0.98;;
27424;SDS011;15244;49.088;11.886;2024-03-23T11:49:41;1.10;;;1.00;;
27424;SDS011;15244;49.088;11.886;2024-03-23T11:54:42;1.63;;;1.10;;
27424;SDS011;15244;49.088;11.886;2024-03-23T11:59:43;1.58;;;1.27;;
27424;SDS011;15244;49.088;11.886;2024-03-23T12:04:44;1.48;;;1.10;;
27424;SDS011;15244;49.088;11.886;2024-03-23T12:09:45;2.50;;;1.30;;
27424;SDS011;15244;49.088;11.886;2024-03-23T12:15:03;1.40;;;1.27;;
27424;SDS011;15244;49.088;11.886;2024-03-23T12:20:08;1.23;;;1.17;;
27424;SDS011;15244;49.088;11.886;2024-03-23T12:25:09;2.15;;;1.40;;
27424;SDS011;15244;49.088;11.886;2024-03-23T12:30:10;2.33;;;1.77;;
27424;SDS011;15244;49.088;11.886;2024-03-23T12:35:11;3.97;;;1.77;;
27424;SDS011;15244;49.088;11.886;2024-03-23T12:40:12;1.70;;;1.40;;
27424;SDS011;15244;49.088;11.886;2024-03-23T12:45:13;4.47;;;1.90;;
27424;SDS011;15244;49.088;11.886;2024-03-23T12:50:13;2.40;;;1.60;;
27424;SDS011;15244;49.088;11.886;2024-03-23T12:55:14;2.28;;;1.65;;
27424;SDS011;15244;49.088;11.886;2024-03-23T13:00:15;2.08;;;1.55;;
27424;SDS011;15244;49.088;11.886;2024-03-23T13:05:17;2.50;;;2.03;;
27424;SDS011;15244;49.088;11.886;2024-03-23T13:10:17;5.05;;;1.98;;
27424;SDS011;15244;49.088;11.886;2024-03-23T13:15:18;2.65;;;2.10;;
27424;SDS011;15244;49.088;11.886;2024-03-23T13:20:20;2.90;;;2.13;;
27424;SDS011;15244;49.088;11.886;2024-03-23T13:25:21;4.75;;;2.60;;
27424;SDS011;15244;49.088;11.886;2024-03-23T13:30:22;4.60;;;2.20;;
27424;SDS011;15244;49.088;11.886;2024-03-23T13:35:22;3.33;;;2.60;;
27424;SDS011;15244;49.088;11.886;2024-03-23T13:40:23;2.28;;;1.70;;
27424;SDS011;15244;49.088;11.886;2024-03-23T13:45:24;2.22;;;2.03;;
27424;SDS011;15244;49.088;11.886;2024-03-23T13:50:25;3.05;;;2.03;;
27424;SDS011;15244;49.088;11.886;2024-03-23T13:55:26;2.00;;;1.55;;
27424;SDS011;15244;49.088;11.886;2024-03-23T14:00:27;2.63;;;1.80;;
27424;SDS011;15244;49.088;11.886;2024-03-23T14:05:27;3.05;;;1.90;;
27424;SDS011;15244;49.088;11.886;2024-03-23T14:10:28;2.45;;;1.83;;
27424;SDS011;15244;49.088;11.886;2024-03-23T14:15:29;5.32;;;1.90;;
27424;SDS011;15244;49.088;11.886;2024-03-23T14:20:33;6.10;;;2.25;;
27424;SDS011;15244;49.088;11.886;2024-03-23T14:25:34;3.17;;;1.90;;
27424;SDS011;15244;49.088;11.886;2024-03-23T14:30:34;3.45;;;1.73;;
27424;SDS011;15244;49.088;11.886;2024-03-23T14:35:35;2.97;;;2.22;;
27424;SDS011;15244;49.088;11.886;2024-03-23T14:40:36;3.60;;;1.60;;
27424;SDS011;15244;49.088;11.886;2024-03-23T14:45:37;2.63;;;1.70;;
27424;SDS011;15244;49.088;11.886;2024-03-23T14:50:37;2.42;;;1.75;;
27424;SDS011;15244;49.088;11.886;2024-03-23T14:55:38;4.82;;;2.38;;
27424;SDS011;15244;49.088;11.886;2024-03-23T15:00:40;5.53;;;3.75;;
27424;SDS011;15244;49.088;11.886;2024-03-23T15:05:41;3.45;;;1.80;;
27424;SDS011;15244;49.088;11.886;2024-03-23T15:10:42;3.17;;;1.50;;
27424;SDS011;15244;49.088;11.886;2024-03-23T15:15:42;3.50;;;2.20;;
27424;SDS011;15244;49.088;11.886;2024-03-23T15:20:52;1.63;;;1.33;;
27424;SDS011;15244;49.088;11.886;2024-03-23T15:26:00;2.03;;;1.45;;
27424;SDS011;15244;49.088;11.886;2024-03-23T15:36:03;4.25;;;2.00;;
27424;SDS011;15244;49.088;11.886;2024-03-23T15:41:04;3.28;;;1.90;;
27424;SDS011;15244;49.088;11.886;2024-03-23T15:46:05;2.65;;;2.10;;
27424;SDS011;15244;49.088;11.886;2024-03-23T15:51:10;1.92;;;1.70;;
27424;SDS011;15244;49.088;11.886;2024-03-23T15:56:11;5.78;;;1.90;;
27424;SDS011;15244;49.088;11.886;2024-03-23T16:01:13;4.43;;;2.10;;
27424;SDS011;15244;49.088;11.886;2024-03-23T16:06:13;5.72;;;2.53;;
27424;SDS011;15244;49.088;11.886;2024-03-23T16:11:14;3.78;;;2.20;;
27424;SDS011;15244;49.088;11.886;2024-03-23T16:16:15;4.65;;;2.17;;
27424;SDS011;15244;49.088;11.886;2024-03-23T16:21:16;4.65;;;2.08;;
27424;SDS011;15244;49.088;11.886;2024-03-23T16:26:18;5.93;;;2.33;;
27424;SDS011;15244;49.088;11.886;2024-03-23T16:31:18;2.42;;;1.70;;
27424;SDS011;15244;49.088;11.886;2024-03-23T16:36:19;3.78;;;1.77;;
27424;SDS011;15244;49.088;11.886;2024-03-23T16:41:20;2.33;;;1.58;;
27424;SDS011;15244;49.088;11.886;2024-03-23T16:46:20;4.18;;;1.67;;
27424;SDS011;15244;49.088;11.886;2024-03-23T16:51:21;3.22;;;1.65;;
27424;SDS011;15244;49.088;11.886;2024-03-23T16:56:21;1.60;;;1.42;;
27424;SDS011;15244;49.088;11.886;2024-03-23T17:01:22;2.88;;;1.67;;
27424;SDS011;15244;49.088;11.886;2024-03-23T17:06:24;1.95;;;1.60;;
27424;SDS011;15244;49.088;11.886;2024-03-23T17:11:25;3.03;;;1.60;;
27424;SDS011;15244;49.088;11.886;2024-03-23T17:16:26;2.00;;;1.58;;
27424;SDS011;15244;49.088;11.886;2024-03-23T17:21:30;2.08;;;1.42;;
27424;SDS011;15244;49.088;11.886;2024-03-23T17:26:31;4.10;;;2.03;;
27424;SDS011;15244;49.088;11.886;2024-03-23T17:31:34;6.00;;;1.77;;
27424;SDS011;15244;49.088;11.886;2024-03-23T17:36:34;2.60;;;1.83;;
27424;SDS011;15244;49.088;11.886;2024-03-23T17:41:36;1.85;;;1.75;;
27424;SDS011;15244;49.088;11.886;2024-03-23T17:46:37;2.28;;;1.77;;
27424;SDS011;15244;49.088;11.886;2024-03-23T17:51:38;2.10;;;1.75;;
27424;SDS011;15244;49.088;11.886;2024-03-23T17:56:39;2.10;;;1.90;;
27424;SDS011;15244;49.088;11.886;2024-03-23T18:01:39;1.35;;;1.20;;
27424;SDS011;15244;49.088;11.886;2024-03-23T18:06:40;2.63;;;1.20;;
27424;SDS011;15244;49.088;11.886;2024-03-23T18:11:41;3.88;;;1.35;;
27424;SDS011;15244;49.088;11.886;2024-03-23T18:16:41;1.70;;;1.23;;
27424;SDS011;15244;49.088;11.886;2024-03-23T18:21:44;2.55;;;1.58;;
27424;SDS011;15244;49.088;11.886;2024-03-23T18:26:44;2.83;;;1.02;;
27424;SDS011;15244;49.088;11.886;2024-03-23T18:31:45;3.35;;;1.63;;
27424;SDS011;15244;49.088;11.886;2024-03-23T18:36:46;1.30;;;1.13;;
27424;SDS011;15244;49.088;11.886;2024-03-23T18:41:47;4.07;;;1.92;;
27424;SDS011;15244;49.088;11.886;2024-03-23T18:46:47;4.13;;;3.13;;
27424;SDS011;15244;49.088;11.886;2024-03-23T18:51:48;3.10;;;2.40;;
27424;SDS011;15244;49.088;11.886;2024-03-23T18:56:48;4.72;;;1.88;;
27424;SDS011;15244;49.088;11.886;2024-03-23T19:01:49;3.67;;;1.60;;
27424;SDS011;15244;49.088;11.886;2024-03-23T19:06:50;2.67;;;1.35;;
27424;SDS011;15244;49.088;11.886;2024-03-23T19:11:50;4.97;;;1.52;;
27424;SDS011;15244;49.088;11.886;2024-03-23T19:16:51;2.85;;;1.48;;
27424;SDS011;15244;49.088;11.886;2024-03-23T19:21:54;2.45;;;1.30;;
27424;SDS011;15244;49.088;11.886;2024-03-23T19:26:54;2.20;;;1.40;;
27424;SDS011;15244;49.088;11.886;2024-03-23T19:31:55;1.27;;;1.17;;
27424;SDS011;15244;49.088;11.886;2024-03-23T19:36:56;1.52;;;1.30;;
27424;SDS011;15244;49.088;11.886;2024-03-23T19:41:58;1.92;;;1.17;;
27424;SDS011;15244;49.088;11.886;2024-03-23T19:46:59;3.72;;;1.30;;
27424;SDS011;15244;49.088;11.886;2024-03-23T19:52:01;2.65;;;1.00;;
27424;SDS011;15244;49.088;11.886;2024-03-23T19:57:04;1.83;;;0.90;;
27424;SDS011;15244;49.088;11.886;2024-03-23T20:02:05;2.53;;;1.02;;
27424;SDS011;15244;49.088;11.886;2024-03-23T20:07:05;2.13;;;1.23;;
27424;SDS011;15244;49.088;11.886;2024-03-23T20:12:06;1.58;;;0.90;;
27424;SDS011;15244;49.088;11.886;2024-03-23T20:17:08;1.77;;;1.00;;
27424;SDS011;15244;49.088;11.886;2024-03-23T20:22:09;2.88;;;1.35;;
27424;SDS011;15244;49.088;11.886;2024-03-23T20:27:09;2.25;;;1.02;;
27424;SDS011;15244;49.088;11.886;2024-03-23T20:32:10;1.52;;;1.08;;
27424;SDS011;15244;49.088;11.886;2024-03-23T20:37:11;1.60;;;1.00;;
27424;SDS011;15244;49.088;11.886;2024-03-23T20:42:11;2.17;;;1.00;;
27424;SDS011;15244;49.088;11.886;2024-03-23T20:47:12;2.15;;;1.20;;
27424;SDS011;15244;49.088;11.886;2024-03-23T20:52:13;1.10;;;1.10;;
27424;SDS011;15244;49.088;11.886;2024-03-23T20:57:14;2.97;;;0.90;;
27424;SDS011;15244;49.088;11.886;2024-03-23T21:02:14;1.58;;;1.27;;
27424;SDS011;15244;49.088;11.886;2024-03-23T21:07:15;0.95;;;0.80;;
27424;SDS011;15244;49.088;11.886;2024-03-23T21:12:15;4.00;;;1.10;;
27424;SDS011;15244;49.088;11.886;2024-03-23T21:17:16;2.28;;;0.90;;
27424;SDS011;15244;49.088;11.886;2024-03-23T21:22:17;0.85;;;0.70;;
27424;SDS011;15244;49.088;11.886;2024-03-23T21:27:18;0.82;;;0.73;;
27424;SDS011;15244;49.088;11.886;2024-03-23T21:32:19;1.63;;;0.85;;
27424;SDS011;15244;49.088;11.886;2024-03-23T21:37:21;1.00;;;1.00;;
27424;SDS011;15244;49.088;11.886;2024-03-23T21:42:23;2.08;;;0.88;;
27424;SDS011;15244;49.088;11.886;2024-03-23T21:47:24;1.30;;;0.90;;
27424;SDS011;15244;49.088;11.886;2024-03-23T21:52:25;1.77;;;0.70;;
27424;SDS011;15244;49.088;11.886;2024-03-23T21:57:26;0.95;;;0.88;;
27424;SDS011;15244;49.088;11.886;2024-03-23T22:02:26;0.70;;;0.70;;
27424;SDS011;15244;49.088;11.886;2024-03-23T22:07:28;1.00;;;0.68;;
27424;SDS011;15244;49.088;11.886;2024-03-23T22:12:30;0.90;;;0.60;;
27424;SDS011;15244;49.088;11.886;2024-03-23T22:17:39;1.55;;;0.68;;
27424;SDS011;15244;49.088;11.886;2024-03-23T22:22:40;0.75;;;0.60;;
27424;SDS011;15244;49.088;11.886;2024-03-23T22:27:42;0.93;;;0.65;;
27424;SDS011;15244;49.088;11.886;2024-03-23T22:32:46;1.88;;;0.90;;
27424;SDS011;15244;49.088;11.886;2024-03-23T22:37:48;0.95;;;0.80;;
27424;SDS011;15244;49.088;11.886;2024-03-23T22:42:49;1.13;;;0.60;;
27424;SDS011;15244;49.088;11.886;2024-03-23T22:47:50;1.08;;;0.82;;
27424;SDS011;15244;49.088;11.886;2024-03-23T22:52:51;0.70;;;0.70;;
27424;SDS011;15244;49.088;11.886;2024-03-23T22:57:51;0.95;;;0.65;;
27424;SDS011;15244;49.088;11.886;2024-03-23T23:02:52;0.80;;;0.80;;
27424;SDS011;15244;49.088;11.886;2024-03-23T23:07:53;1.02;;;0.73;;
27424;SDS011;15244;49.088;11.886;2024-03-23T23:12:54;1.70;;;1.00;;
27424;SDS011;15244;49.088;11.886;2024-03-23T23:17:55;0.80;;;0.80;;
27424;SDS011;15244;49.088;11.886;2024-03-23T23:22:55;0.73;;;0.73;;
27424;SDS011;15244;49.088;11.886;2024-03-23T23:27:56;0.80;;;0.80;;
27424;SDS011;15244;49.088;11.886;2024-03-23T23:32:57;1.10;;;1.00;;
27424;SDS011;15244;49.088;11.886;2024-03-23T23:37:58;0.85;;;0.85;;
27424;SDS011;15244;49.088;11.886;2024-03-23T23:42:59;1.48;;;0.88;;
27424;SDS011;15244;49.088;11.886;2024-03-23T23:47:59;0.73;;;0.73;;
27424;SDS011;15244;49.088;11.886;2024-03-23T23:53:00;1.17;;;1.08;;
27424;SDS011;15244;49.088;11.886;2024-03-23T23:58:01;1.38;;;0.88;;
